Royston, Georgia
Current Conditions -  °F | °C
As of 7:35 PM on Friday 31 Oct 2014 (Local Time) from KTOC Reporting Station
Broken Clouds Broken Clouds  
Wind Chill: 54°   Ceiling: 7500
Heat Index: 54°   Visibility: 10mi
Dew Point: 40°   Wind: 8mph
Humidity: 59%   Direction: 320°NW
Pressure: 29.84"   Gusts: NA
Location:  34.29°N, 83.11°W
Report Text: KTOC 312335Z AUTO 32007KT 10SM SCT060 BKN075 BKN120 12/04 A2984 RMK AO2 T01220044
Loading
Personal Weather Stations






























Interactive Weather Map
Tropical Storm Tracking
New forecast layout! Learn more

10-Day Weather Forecast

Advertisements
Track Severe Weather on mobile